Terminal Aerodrome Forecast
Issued by NWS Central Illinois

Home | Current Version | Previous Version | Text Only | Print | Product List | Glossary On
Versions: 1 2 3 4 5 6 7 8 9 10 11 12 13 14 15 16 17 18 19 20
000
FTUS43 KILX 250537
TAFSPI
TAF
KSPI 250537Z 2506/2606 33008KT P6SM BKN025
     FM251000 32008KT 5SM BR BKN008
     FM251300 32008KT P6SM BKN030
     FM251400 32008KT P6SM BKN040
     FM251900 31008KT P6SM SCT110
     FM260300 00000KT P6SM FEW250=

USA.gov is the U.S. government's official web portal to all federal, state and local government web resources and services.